createdAt,value
2018-04-28T00:00:42.693Z,1006.19
2018-04-28T00:01:41.717Z,1006.18
2018-04-28T00:02:41.733Z,1006.17
2018-04-28T00:03:41.662Z,1006.14
2018-04-28T00:04:41.634Z,1006.15
2018-04-28T00:05:41.606Z,1006.15
2018-04-28T00:06:41.579Z,1006.17
2018-04-28T00:07:41.584Z,1006.15
2018-04-28T00:08:41.521Z,1006.13
2018-04-28T00:09:41.498Z,1006.16
2018-04-28T00:10:41.509Z,1006.18
2018-04-28T00:11:41.436Z,1006.15
2018-04-28T00:12:41.443Z,1006.16
2018-04-28T00:13:41.380Z,1006.16
2018-04-28T00:14:41.352Z,1006.13
2018-04-28T00:15:41.364Z,1006.12
2018-04-28T00:16:41.294Z,1006.11
2018-04-28T00:17:41.271Z,1006.11
2018-04-28T00:18:41.238Z,1006.08
2018-04-28T00:19:41.210Z,1006.03
2018-04-28T00:20:41.240Z,1006.07
2018-04-28T00:21:41.153Z,1006.05
2018-04-28T00:22:41.125Z,1006.02
2018-04-28T00:23:41.094Z,1005.99
2018-04-28T00:24:41.069Z,1006.03
2018-04-28T00:25:41.178Z,1006.01
2018-04-28T00:26:41.008Z,1006.00
2018-04-28T00:27:41.009Z,1005.97
2018-04-28T00:28:40.958Z,1005.95
2018-04-28T00:29:40.931Z,1005.93
2018-04-28T00:30:40.925Z,1005.92
2018-04-28T00:31:40.879Z,1005.90
2018-04-28T00:32:40.876Z,1005.92
2018-04-28T00:33:40.843Z,1005.90
2018-04-28T00:34:40.790Z,1005.90
2018-04-28T00:35:40.757Z,1005.89
2018-04-28T00:36:40.761Z,1005.87
2018-04-28T00:37:40.702Z,1005.90
2018-04-28T00:38:40.674Z,1005.87
2018-04-28T00:39:40.639Z,1005.87
2018-04-28T00:40:41.200Z,1005.87
2018-04-28T00:41:40.618Z,1005.89
2018-04-28T00:42:40.552Z,1005.85
2018-04-28T00:43:40.526Z,1005.85
2018-04-28T00:44:40.524Z,1005.87
2018-04-28T00:45:40.473Z,1005.88
2018-04-28T00:46:40.440Z,1005.88
2018-04-28T00:47:40.410Z,1005.86
2018-04-28T00:48:40.410Z,1005.83
2018-04-28T00:49:40.353Z,1005.84
2018-04-28T00:50:40.332Z,1005.82
2018-04-28T00:51:40.301Z,1005.83
2018-04-28T00:52:40.269Z,1005.81
2018-04-28T00:53:40.278Z,1005.88
2018-04-28T00:54:40.214Z,1005.88
2018-04-28T00:55:40.186Z,1005.85
2018-04-28T00:56:40.154Z,1005.83
2018-04-28T00:57:40.133Z,1005.82
2018-04-28T00:58:40.128Z,1005.83
2018-04-28T00:59:40.100Z,1005.79
2018-04-28T01:00:40.047Z,1005.77
2018-04-28T01:01:40.013Z,1005.81
2018-04-28T01:02:39.982Z,1005.80
2018-04-28T01:03:39.951Z,1005.77
2018-04-28T01:04:39.957Z,1005.78
2018-04-28T01:05:39.897Z,1005.78
2018-04-28T01:06:39.866Z,1005.79
2018-04-28T01:07:39.842Z,1005.82
2018-04-28T01:08:39.805Z,1005.84
2018-04-28T01:09:39.811Z,1005.84
2018-04-28T01:10:39.750Z,1005.82
2018-04-28T01:11:39.724Z,1005.84
2018-04-28T01:12:39.695Z,1005.82
2018-04-28T01:13:39.669Z,1005.83
2018-04-28T01:14:39.676Z,1005.76
2018-04-28T01:15:39.605Z,1005.84
2018-04-28T01:16:39.574Z,1005.86
2018-04-28T01:17:39.550Z,1005.84
2018-04-28T01:18:39.530Z,1005.81
2018-04-28T01:19:39.526Z,1005.85
2018-04-28T01:20:39.748Z,1005.81
2018-04-28T01:21:39.438Z,1005.79
2018-04-28T01:22:39.405Z,1005.81
2018-04-28T01:23:39.381Z,1005.84
2018-04-28T01:24:39.379Z,1005.89
2018-04-28T01:25:39.324Z,1005.84
2018-04-28T01:26:39.289Z,1005.84
2018-04-28T01:27:39.258Z,1005.81
2018-04-28T01:28:39.238Z,1005.81
2018-04-28T01:29:39.254Z,1005.78
2018-04-28T01:30:39.177Z,1005.81
2018-04-28T01:31:39.185Z,1005.83
2018-04-28T01:32:39.705Z,1005.84
2018-04-28T01:33:39.095Z,1005.81
2018-04-28T01:34:39.096Z,1005.78
2018-04-28T01:35:39.034Z,1005.81
2018-04-28T01:36:39.067Z,1005.82
2018-04-28T01:37:38.968Z,1005.79
2018-04-28T01:38:38.938Z,1005.78
2018-04-28T01:39:38.911Z,1005.83
2018-04-28T01:40:38.926Z,1005.84
2018-04-28T01:41:38.859Z,1005.83
2018-04-28T01:42:38.825Z,1005.80
2018-04-28T01:43:38.794Z,1005.80
2018-04-28T01:44:38.795Z,1005.78
2018-04-28T01:45:38.778Z,1005.78
2018-04-28T01:46:38.709Z,1005.81
2018-04-28T01:47:39.203Z,1005.78
2018-04-28T01:48:38.654Z,1005.80
2018-04-28T01:49:38.621Z,1005.80
2018-04-28T01:50:38.626Z,1005.79
2018-04-28T01:51:39.206Z,1005.80
2018-04-28T01:52:38.582Z,1005.82
2018-04-28T01:53:38.517Z,1005.85
2018-04-28T01:54:38.476Z,1005.81
2018-04-28T01:55:38.485Z,1005.84
2018-04-28T01:56:38.415Z,1005.81
2018-04-28T01:57:38.385Z,1005.82
2018-04-28T01:58:38.362Z,1005.80
2018-04-28T01:59:38.331Z,1005.83
2018-04-28T02:00:38.337Z,1005.82
2018-04-28T02:01:38.271Z,1005.79
2018-04-28T02:02:38.240Z,1005.77
2018-04-28T02:03:38.248Z,1005.85
2018-04-28T02:04:38.186Z,1005.85
2018-04-28T02:05:38.157Z,1005.83
2018-04-28T02:06:38.126Z,1005.81
2018-04-28T02:07:38.096Z,1005.81
2018-04-28T02:08:38.102Z,1005.80
2018-04-28T02:09:38.043Z,1005.80
2018-04-28T02:10:38.010Z,1005.74
2018-04-28T02:11:37.980Z,1005.77
2018-04-28T02:12:37.952Z,1005.76
2018-04-28T02:13:37.970Z,1005.72
2018-04-28T02:14:37.891Z,1005.70
2018-04-28T02:15:39.611Z,1005.70
2018-04-28T02:16:37.832Z,1005.68
2018-04-28T02:17:37.808Z,1005.72
2018-04-28T02:18:37.822Z,1005.71
2018-04-28T02:19:37.785Z,1005.71
2018-04-28T02:20:37.715Z,1005.73
2018-04-28T02:21:37.689Z,1005.66
2018-04-28T02:22:37.657Z,1005.72
2018-04-28T02:23:37.631Z,1005.68
2018-04-28T02:24:37.645Z,1005.68
2018-04-28T02:25:37.574Z,1005.70
2018-04-28T02:26:38.208Z,1005.75
2018-04-28T02:27:37.516Z,1005.73
2018-04-28T02:28:37.482Z,1005.76
2018-04-28T02:29:37.488Z,1005.77
2018-04-28T02:30:37.423Z,1005.77
2018-04-28T02:31:37.404Z,1005.79
2018-04-28T02:32:37.374Z,1005.79
2018-04-28T02:33:37.336Z,1005.82
2018-04-28T02:34:37.344Z,1005.79
2018-04-28T02:35:37.337Z,1005.82
2018-04-28T02:36:37.247Z,1005.85
2018-04-28T02:37:37.219Z,1005.79
2018-04-28T02:38:37.196Z,1005.81
2018-04-28T02:39:37.159Z,1005.80
2018-04-28T02:40:37.160Z,1005.80
2018-04-28T02:41:37.107Z,1005.83
2018-04-28T02:42:37.070Z,1005.84
2018-04-28T02:43:37.041Z,1005.78
2018-04-28T02:44:37.014Z,1005.82
2018-04-28T02:45:37.033Z,1005.82
2018-04-28T02:46:36.953Z,1005.86
2018-04-28T02:47:36.926Z,1005.86
2018-04-28T02:48:36.911Z,1005.84
2018-04-28T02:49:36.867Z,1005.89
2018-04-28T02:50:36.907Z,1005.86
2018-04-28T02:51:36.837Z,1005.88
2018-04-28T02:52:36.780Z,1005.89
2018-04-28T02:53:36.749Z,1005.88
2018-04-28T02:54:36.719Z,1005.84
2018-04-28T02:55:36.690Z,1005.86
2018-04-28T02:56:36.689Z,1005.84
2018-04-28T02:57:36.636Z,1005.85
2018-04-28T02:58:36.601Z,1005.88
2018-04-28T02:59:36.591Z,1005.88
2018-04-28T03:00:36.539Z,1005.90
2018-04-28T03:01:36.545Z,1005.94
2018-04-28T03:02:36.491Z,1005.93
2018-04-28T03:03:36.451Z,1005.89
2018-04-28T03:04:36.436Z,1005.95
2018-04-28T03:05:36.397Z,1005.95
2018-04-28T03:06:36.404Z,1005.97
2018-04-28T03:07:36.372Z,1005.97
2018-04-28T03:08:36.303Z,1005.95
2018-04-28T03:09:36.298Z,1005.95
2018-04-28T03:10:36.249Z,1005.94
2018-04-28T03:11:36.223Z,1005.95
2018-04-28T03:12:36.227Z,1005.96
2018-04-28T03:13:36.190Z,1005.94
2018-04-28T03:14:36.132Z,1005.92
2018-04-28T03:15:36.101Z,1005.93
2018-04-28T03:16:36.068Z,1005.96
2018-04-28T03:17:36.071Z,1005.95
2018-04-28T03:18:36.044Z,1005.92
2018-04-28T03:19:35.977Z,1005.97
2018-04-28T03:20:35.947Z,1005.95
2018-04-28T03:21:35.962Z,1005.96
2018-04-28T03:22:35.929Z,1005.98
2018-04-28T03:23:35.894Z,1005.95
2018-04-28T03:24:35.829Z,1005.95
2018-04-28T03:25:35.804Z,1006.00
2018-04-28T03:26:35.778Z,1006.00
2018-04-28T03:27:35.744Z,1005.99
2018-04-28T03:28:35.759Z,1005.98
2018-04-28T03:29:35.695Z,1006.01
2018-04-28T03:30:35.653Z,1005.98
2018-04-28T03:31:35.619Z,1005.96
2018-04-28T03:32:35.595Z,1005.95
2018-04-28T03:33:35.771Z,1005.94
2018-04-28T03:34:35.573Z,1005.96
2018-04-28T03:35:35.535Z,1005.99
2018-04-28T03:36:35.484Z,1005.98
2018-04-28T03:37:35.446Z,1005.98
2018-04-28T03:38:35.414Z,1006.02
2018-04-28T03:39:35.417Z,1006.02
2018-04-28T03:40:36.216Z,1006.06
2018-04-28T03:41:35.321Z,1006.09
2018-04-28T03:42:35.293Z,1006.08
2018-04-28T03:43:35.260Z,1006.09
2018-04-28T03:44:35.270Z,1006.13
2018-04-28T03:45:35.203Z,1006.12
2018-04-28T03:46:35.227Z,1006.11
2018-04-28T03:47:35.147Z,1006.13
2018-04-28T03:48:35.113Z,1006.15
2018-04-28T03:49:35.082Z,1006.13
2018-04-28T03:50:35.052Z,1006.13
2018-04-28T03:51:35.069Z,1006.17
2018-04-28T03:52:34.995Z,1006.18
2018-04-28T03:53:34.995Z,1006.16
2018-04-28T03:54:34.938Z,1006.10
2018-04-28T03:55:34.942Z,1006.20
2018-04-28T03:56:34.929Z,1006.17
2018-04-28T03:57:34.849Z,1006.11
2018-04-28T03:58:34.815Z,1006.14
2018-04-28T03:59:34.784Z,1006.12
2018-04-28T04:00:34.792Z,1006.17
2018-04-28T04:01:34.774Z,1006.17
2018-04-28T04:02:34.701Z,1006.19
2018-04-28T04:03:34.665Z,1006.18
2018-04-28T04:04:34.632Z,1006.15
2018-04-28T04:05:34.606Z,1006.14
2018-04-28T04:06:34.608Z,1006.12
2018-04-28T04:07:34.579Z,1006.14
2018-04-28T04:08:34.519Z,1006.15
2018-04-28T04:09:34.483Z,1006.15
2018-04-28T04:10:34.453Z,1006.18
2018-04-28T04:11:34.429Z,1006.17
2018-04-28T04:12:34.432Z,1006.15
2018-04-28T04:13:34.375Z,1006.16
2018-04-28T04:14:34.337Z,1006.11
2018-04-28T04:15:34.314Z,1006.13
2018-04-28T04:16:34.280Z,1006.15
2018-04-28T04:17:34.288Z,1006.13
2018-04-28T04:18:34.218Z,1006.18
2018-04-28T04:19:34.190Z,1006.21
2018-04-28T04:20:34.158Z,1006.18
2018-04-28T04:21:34.132Z,1006.22
2018-04-28T04:22:34.235Z,1006.23
2018-04-28T04:23:34.071Z,1006.30
2018-04-28T04:24:34.041Z,1006.33
2018-04-28T04:25:34.015Z,1006.31
2018-04-28T04:26:34.039Z,1006.34
2018-04-28T04:27:33.986Z,1006.31
2018-04-28T04:28:33.965Z,1006.33
2018-04-28T04:29:33.898Z,1006.28
2018-04-28T04:30:33.866Z,1006.29
2018-04-28T04:31:33.852Z,1006.28
2018-04-28T04:32:33.811Z,1006.31
2018-04-28T04:33:33.813Z,1006.27
2018-04-28T04:34:33.785Z,1006.29
2018-04-28T04:35:33.726Z,1006.29
2018-04-28T04:36:33.735Z,1006.30
2018-04-28T04:37:33.667Z,1006.30
2018-04-28T04:38:33.642Z,1006.27
2018-04-28T04:39:33.653Z,1006.32
2018-04-28T04:40:33.575Z,1006.35
2018-04-28T04:41:33.554Z,1006.35
2018-04-28T04:42:33.534Z,1006.36
2018-04-28T04:43:33.485Z,1006.40
2018-04-28T04:44:33.493Z,1006.37
2018-04-28T04:45:33.475Z,1006.36
2018-04-28T04:46:34.124Z,1006.43
2018-04-28T04:47:33.374Z,1006.41
2018-04-28T04:48:33.353Z,1006.49
2018-04-28T04:49:33.320Z,1006.51
2018-04-28T04:50:33.325Z,1006.53
2018-04-28T04:51:33.257Z,1006.55
2018-04-28T04:52:33.233Z,1006.55
2018-04-28T04:53:33.209Z,1006.59
2018-04-28T04:54:33.216Z,1006.61
2018-04-28T04:55:33.159Z,1006.63
2018-04-28T04:56:33.115Z,1006.63
2018-04-28T04:57:33.088Z,1006.58
2018-04-28T04:58:33.060Z,1006.61
2018-04-28T04:59:33.065Z,1006.60
2018-04-28T05:00:33.048Z,1006.59
2018-04-28T05:01:32.977Z,1006.66
2018-04-28T05:02:32.953Z,1006.69
2018-04-28T05:03:32.926Z,1006.69
2018-04-28T05:04:32.895Z,1006.71
2018-04-28T05:05:32.900Z,1006.68
2018-04-28T05:06:32.839Z,1006.72
2018-04-28T05:07:32.838Z,1006.67
2018-04-28T05:08:32.797Z,1006.69
2018-04-28T05:09:32.754Z,1006.70
2018-04-28T05:10:32.724Z,1006.72
2018-04-28T05:11:32.739Z,1006.70
2018-04-28T05:12:32.670Z,1006.70
2018-04-28T05:13:32.645Z,1006.73
2018-04-28T05:14:32.614Z,1006.76
2018-04-28T05:15:32.591Z,1006.76
2018-04-28T05:16:32.587Z,1006.77
2018-04-28T05:17:32.572Z,1006.81
2018-04-28T05:18:32.504Z,1006.81
2018-04-28T05:19:32.476Z,1006.81
2018-04-28T05:20:32.463Z,1006.84
2018-04-28T05:21:32.430Z,1006.85
2018-04-28T05:22:32.431Z,1006.85
2018-04-28T05:23:32.370Z,1006.85
2018-04-28T05:24:32.343Z,1006.85
2018-04-28T05:25:32.313Z,1006.84
2018-04-28T05:26:32.323Z,1006.86
2018-04-28T05:27:32.260Z,1006.84
2018-04-28T05:28:32.270Z,1006.84
2018-04-28T05:29:32.215Z,1006.84
2018-04-28T05:30:32.181Z,1006.90
2018-04-28T05:31:32.153Z,1006.88
2018-04-28T05:32:32.130Z,1006.91
2018-04-28T05:33:32.132Z,1006.92
2018-04-28T05:34:32.077Z,1006.94
2018-04-28T05:35:32.044Z,1006.95
2018-04-28T05:36:32.021Z,1007.00
2018-04-28T05:37:31.992Z,1007.04
2018-04-28T05:38:32.381Z,1007.02
2018-04-28T05:39:31.943Z,1007.06
2018-04-28T05:40:31.916Z,1007.05
2018-04-28T05:41:31.892Z,1007.08
2018-04-28T05:42:31.859Z,1007.10
2018-04-28T05:43:31.885Z,1007.11
2018-04-28T05:44:31.814Z,1007.11
2018-04-28T05:45:31.781Z,1007.09
2018-04-28T05:46:31.754Z,1007.12
2018-04-28T05:47:31.736Z,1007.16
2018-04-28T05:48:31.742Z,1007.21
2018-04-28T05:49:31.716Z,1007.23
2018-04-28T05:50:31.650Z,1007.18
2018-04-28T05:51:31.625Z,1007.21
2018-04-28T05:52:31.612Z,1007.18
2018-04-28T05:53:31.576Z,1007.23
2018-04-28T05:54:31.581Z,1007.24
2018-04-28T05:55:31.520Z,1007.24
2018-04-28T05:56:31.492Z,1007.25
2018-04-28T05:57:31.469Z,1007.30
2018-04-28T05:58:31.469Z,1007.29
2018-04-28T05:59:31.445Z,1007.29
2018-04-28T06:00:31.441Z,1007.31
2018-04-28T06:01:31.366Z,1007.31
2018-04-28T06:02:31.341Z,1007.30
2018-04-28T06:03:31.352Z,1007.34
2018-04-28T06:04:31.339Z,1007.36
2018-04-28T06:05:31.262Z,1007.35
2018-04-28T06:06:31.270Z,1007.38
2018-04-28T06:07:31.215Z,1007.38
2018-04-28T06:08:31.183Z,1007.41
2018-04-28T06:09:31.160Z,1007.39
2018-04-28T06:10:31.132Z,1007.40
2018-04-28T06:11:31.146Z,1007.40
2018-04-28T06:12:31.084Z,1007.44
2018-04-28T06:13:31.292Z,1007.44
2018-04-28T06:14:31.041Z,1007.48
2018-04-28T06:15:31.008Z,1007.50
2018-04-28T06:16:30.996Z,1007.47
2018-04-28T06:17:30.961Z,1007.47
2018-04-28T06:18:30.968Z,1007.51
2018-04-28T06:19:30.907Z,1007.53
2018-04-28T06:20:30.880Z,1007.54
2018-04-28T06:21:30.858Z,1007.51
2018-04-28T06:22:30.866Z,1007.51
2018-04-28T06:23:30.832Z,1007.50
2018-04-28T06:24:30.777Z,1007.53
2018-04-28T06:25:30.758Z,1007.54
2018-04-28T06:26:30.781Z,1007.55
2018-04-28T06:27:30.737Z,1007.59
2018-04-28T06:28:30.682Z,1007.55
2018-04-28T06:29:30.652Z,1007.54
2018-04-28T06:30:30.636Z,1007.55
2018-04-28T06:31:30.633Z,1007.55
2018-04-28T06:32:30.614Z,1007.55
2018-04-28T06:33:30.618Z,1007.56
2018-04-28T06:34:30.524Z,1007.55
2018-04-28T06:35:30.538Z,1007.59
2018-04-28T06:36:30.508Z,1007.58
2018-04-28T06:37:30.492Z,1007.61
2018-04-28T06:38:30.436Z,1007.61
2018-04-28T06:39:30.401Z,1007.62
2018-04-28T06:40:30.370Z,1007.64
2018-04-28T06:41:30.348Z,1007.65
2018-04-28T06:42:30.369Z,1007.67
2018-04-28T06:43:31.144Z,1007.66
2018-04-28T06:44:30.279Z,1007.68
2018-04-28T06:45:30.245Z,1007.68
2018-04-28T06:46:30.217Z,1007.72
2018-04-28T06:47:30.242Z,1007.73
2018-04-28T06:48:30.211Z,1007.74
2018-04-28T06:49:30.159Z,1007.77
2018-04-28T06:50:30.118Z,1007.76
2018-04-28T06:51:30.092Z,1007.79
2018-04-28T06:52:30.102Z,1007.80
2018-04-28T06:53:30.059Z,1007.81
2018-04-28T06:54:30.036Z,1007.79
2018-04-28T06:55:29.995Z,1007.78
2018-04-28T06:56:29.968Z,1007.74
2018-04-28T06:57:29.983Z,1007.77
2018-04-28T06:58:30.011Z,1007.78
2018-04-28T06:59:29.900Z,1007.78
2018-04-28T07:00:29.880Z,1007.79
2018-04-28T07:01:29.851Z,1007.78
2018-04-28T07:02:29.836Z,1007.81
2018-04-28T07:03:29.842Z,1007.82
2018-04-28T07:04:29.792Z,1007.81
2018-04-28T07:05:29.763Z,1007.87
2018-04-28T07:06:29.725Z,1007.90
2018-04-28T07:07:29.712Z,1007.91
2018-04-28T07:08:29.727Z,1007.90
2018-04-28T07:09:29.653Z,1007.93
2018-04-28T07:10:29.633Z,1007.94
2018-04-28T07:11:29.605Z,1007.90
2018-04-28T07:12:29.591Z,1007.91
2018-04-28T07:13:30.149Z,1007.86
2018-04-28T07:14:29.586Z,1007.90
2018-04-28T07:15:29.523Z,1007.88
2018-04-28T07:16:29.494Z,1007.91
2018-04-28T07:17:29.466Z,1007.91
2018-04-28T07:18:29.441Z,1007.92
2018-04-28T07:19:29.465Z,1007.90
2018-04-28T07:20:29.404Z,1007.90
2018-04-28T07:21:29.373Z,1007.90
2018-04-28T07:22:29.357Z,1007.91
2018-04-28T07:23:29.323Z,1007.93
2018-04-28T07:24:29.347Z,1007.91
2018-04-28T07:25:29.285Z,1007.94
2018-04-28T07:26:30.245Z,1007.92
2018-04-28T07:27:29.238Z,1007.92
2018-04-28T07:28:29.209Z,1007.90
2018-04-28T07:29:29.253Z,1007.90
2018-04-28T07:30:29.167Z,1007.93
2018-04-28T07:31:29.141Z,1007.93
2018-04-28T07:32:29.121Z,1007.96
2018-04-28T07:33:29.098Z,1007.95
2018-04-28T07:34:29.136Z,1007.95
2018-04-28T07:35:29.053Z,1007.91
2018-04-28T07:36:29.040Z,1007.98
2018-04-28T07:37:29.010Z,1007.97
2018-04-28T07:38:29.748Z,1007.94
2018-04-28T07:39:29.015Z,1007.95
2018-04-28T07:40:28.976Z,1007.96
2018-04-28T07:41:28.949Z,1007.95
2018-04-28T07:42:28.895Z,1007.99
2018-04-28T07:43:28.872Z,1007.97
2018-04-28T07:44:28.852Z,1007.97
2018-04-28T07:45:28.867Z,1008.00
2018-04-28T07:46:28.807Z,1007.98
2018-04-28T07:47:28.789Z,1007.96
2018-04-28T07:48:28.762Z,1007.98
2018-04-28T07:49:28.734Z,1007.94
2018-04-28T07:50:28.755Z,1007.95
2018-04-28T07:51:28.690Z,1007.96
2018-04-28T07:52:28.668Z,1007.99
2018-04-28T07:53:28.686Z,1007.98
2018-04-28T07:54:28.630Z,1008.01
2018-04-28T07:55:28.601Z,1008.00
2018-04-28T07:56:28.579Z,1008.06
2018-04-28T07:57:28.557Z,1008.03
2018-04-28T07:58:28.582Z,1008.04
2018-04-28T07:59:28.511Z,1008.05
2018-04-28T08:00:28.492Z,1008.09
2018-04-28T08:01:28.468Z,1008.10
2018-04-28T08:02:28.471Z,1008.13
2018-04-28T08:03:29.327Z,1008.15
2018-04-28T08:04:28.398Z,1008.16
2018-04-28T08:05:28.376Z,1008.18
2018-04-28T08:06:28.362Z,1008.17
2018-04-28T08:07:28.339Z,1008.16
2018-04-28T08:08:28.350Z,1008.16
2018-04-28T08:09:28.294Z,1008.15
2018-04-28T08:10:28.329Z,1008.17
2018-04-28T08:11:28.241Z,1008.14
2018-04-28T08:12:28.215Z,1008.19
2018-04-28T08:13:28.239Z,1008.20
2018-04-28T08:14:28.180Z,1008.16
2018-04-28T08:15:28.192Z,1008.21
2018-04-28T08:16:28.137Z,1008.17
2018-04-28T08:17:28.111Z,1008.17
2018-04-28T08:18:28.089Z,1008.19
2018-04-28T08:19:28.110Z,1008.21
2018-04-28T08:20:28.053Z,1008.22
2018-04-28T08:21:28.029Z,1008.23
2018-04-28T08:22:28.003Z,1008.22
2018-04-28T08:23:27.980Z,1008.22
2018-04-28T08:24:27.989Z,1008.25
2018-04-28T08:25:28.061Z,1008.20
2018-04-28T08:26:27.953Z,1008.24
2018-04-28T08:27:27.888Z,1008.25
2018-04-28T08:28:27.868Z,1008.28
2018-04-28T08:29:27.846Z,1008.30
2018-04-28T08:30:27.873Z,1008.31
2018-04-28T08:31:27.802Z,1008.38
2018-04-28T08:32:27.777Z,1008.35
2018-04-28T08:33:27.762Z,1008.38
2018-04-28T08:34:27.734Z,1008.38
2018-04-28T08:35:27.759Z,1008.37
2018-04-28T08:36:27.692Z,1008.35
2018-04-28T08:37:27.718Z,1008.35
2018-04-28T08:38:27.655Z,1008.30
2018-04-28T08:39:27.629Z,1008.31
2018-04-28T08:40:27.640Z,1008.34
2018-04-28T08:41:27.653Z,1008.33
2018-04-28T08:42:27.565Z,1008.36
2018-04-28T08:43:27.539Z,1008.40
2018-04-28T08:44:27.565Z,1008.40
2018-04-28T08:45:27.563Z,1008.41
2018-04-28T08:46:27.516Z,1008.40
2018-04-28T08:47:27.468Z,1008.40
2018-04-28T08:48:27.433Z,1008.45
2018-04-28T08:49:27.412Z,1008.42
2018-04-28T08:50:27.467Z,1008.44
2018-04-28T08:51:27.419Z,1008.43
2018-04-28T08:52:27.348Z,1008.42
2018-04-28T08:53:27.399Z,1008.39
2018-04-28T08:54:27.315Z,1008.40
2018-04-28T08:55:27.293Z,1008.43
2018-04-28T08:56:27.294Z,1008.42
2018-04-28T08:57:27.239Z,1008.42
2018-04-28T08:58:27.230Z,1008.42
2018-04-28T08:59:27.193Z,1008.41
2018-04-28T09:00:27.231Z,1008.46
2018-04-28T09:01:27.205Z,1008.45
2018-04-28T09:02:27.776Z,1008.46
2018-04-28T09:03:27.115Z,1008.48
2018-04-28T09:04:27.087Z,1008.44
2018-04-28T09:05:27.077Z,1008.46
2018-04-28T09:06:27.092Z,1008.44
2018-04-28T09:07:27.070Z,1008.45
2018-04-28T09:08:27.014Z,1008.44
2018-04-28T09:09:26.980Z,1008.41
2018-04-28T09:10:26.976Z,1008.46
2018-04-28T09:11:26.947Z,1008.41
2018-04-28T09:12:26.950Z,1008.41
2018-04-28T09:13:27.770Z,1008.39
2018-04-28T09:14:26.873Z,1008.41
2018-04-28T09:15:26.853Z,1008.37
2018-04-28T09:16:26.827Z,1008.38
2018-04-28T09:17:26.843Z,1008.43
2018-04-28T09:18:26.785Z,1008.40
2018-04-28T09:19:26.847Z,1008.45
2018-04-28T09:20:26.768Z,1008.40
2018-04-28T09:21:26.717Z,1008.44
2018-04-28T09:22:26.727Z,1008.42
2018-04-28T09:23:26.675Z,1008.42
2018-04-28T09:24:26.648Z,1008.39
2018-04-28T09:25:26.626Z,1008.38
2018-04-28T09:26:26.724Z,1008.42
2018-04-28T09:27:26.624Z,1008.39
2018-04-28T09:28:26.567Z,1008.39
2018-04-28T09:29:26.540Z,1008.40
2018-04-28T09:30:26.572Z,1008.36
2018-04-28T09:31:26.507Z,1008.40
2018-04-28T09:32:26.477Z,1008.42
2018-04-28T09:33:26.484Z,1008.41
2018-04-28T09:34:26.433Z,1008.42
2018-04-28T09:35:26.407Z,1008.43
2018-04-28T09:36:26.418Z,1008.42
2018-04-28T09:37:26.436Z,1008.46
2018-04-28T09:38:26.396Z,1008.41
2018-04-28T09:39:26.320Z,1008.44
2018-04-28T09:40:26.376Z,1008.42
2018-04-28T09:41:26.321Z,1008.47
2018-04-28T09:42:26.254Z,1008.47
2018-04-28T09:43:26.234Z,1008.44
2018-04-28T09:44:26.213Z,1008.45
2018-04-28T09:45:26.224Z,1008.43
2018-04-28T09:46:26.249Z,1008.47
2018-04-28T09:47:26.144Z,1008.49
2018-04-28T09:48:26.125Z,1008.50
2018-04-28T09:49:26.106Z,1008.46
2018-04-28T09:50:27.145Z,1008.48
2018-04-28T09:51:26.095Z,1008.48
2018-04-28T09:52:26.040Z,1008.45
2018-04-28T09:53:26.015Z,1008.49
2018-04-28T09:54:26.001Z,1008.50
2018-04-28T09:55:25.983Z,1008.49
2018-04-28T09:56:25.984Z,1008.51
2018-04-28T09:57:25.932Z,1008.49
2018-04-28T09:58:25.932Z,1008.51
2018-04-28T09:59:25.886Z,1008.49
2018-04-28T10:00:25.867Z,1008.45
2018-04-28T10:01:25.875Z,1008.47
2018-04-28T10:02:25.820Z,1008.46
2018-04-28T10:03:25.797Z,1008.52
2018-04-28T10:04:25.782Z,1008.51
2018-04-28T10:05:25.753Z,1008.53
2018-04-28T10:06:25.766Z,1008.49
2018-04-28T10:07:25.718Z,1008.50
2018-04-28T10:08:25.688Z,1008.51
2018-04-28T10:09:25.679Z,1008.51
2018-04-28T10:10:25.647Z,1008.46
2018-04-28T10:11:25.836Z,1008.46
2018-04-28T10:12:25.602Z,1008.45
2018-04-28T10:13:25.619Z,1008.46
2018-04-28T10:14:25.623Z,1008.41
2018-04-28T10:15:25.547Z,1008.41
2018-04-28T10:16:25.550Z,1008.42
2018-04-28T10:17:25.497Z,1008.44
2018-04-28T10:18:25.517Z,1008.41
2018-04-28T10:19:25.451Z,1008.42
2018-04-28T10:20:25.539Z,1008.37
2018-04-28T10:21:25.405Z,1008.41
2018-04-28T10:22:25.386Z,1008.38
2018-04-28T10:23:25.400Z,1008.37
2018-04-28T10:24:25.344Z,1008.47
2018-04-28T10:25:25.355Z,1008.39
2018-04-28T10:26:25.296Z,1008.37
2018-04-28T10:27:25.309Z,1008.36
2018-04-28T10:28:25.253Z,1008.37
2018-04-28T10:29:25.234Z,1008.34
2018-04-28T10:30:25.211Z,1008.35
2018-04-28T10:31:25.241Z,1008.34
2018-04-28T10:32:25.170Z,1008.37
2018-04-28T10:33:25.145Z,1008.35
2018-04-28T10:34:25.160Z,1008.33
2018-04-28T10:35:25.107Z,1008.35
2018-04-28T10:36:25.222Z,1008.33
2018-04-28T10:37:25.058Z,1008.35
2018-04-28T10:38:25.070Z,1008.36
2018-04-28T10:39:25.014Z,1008.33
2018-04-28T10:40:24.993Z,1008.36
2018-04-28T10:41:25.005Z,1008.31
2018-04-28T10:42:24.960Z,1008.32
2018-04-28T10:43:24.927Z,1008.37
2018-04-28T10:44:24.968Z,1008.32
2018-04-28T10:45:24.887Z,1008.31
2018-04-28T10:46:24.868Z,1008.36
2018-04-28T10:47:24.844Z,1008.33
2018-04-28T10:48:24.823Z,1008.32
2018-04-28T10:49:24.837Z,1008.29
2018-04-28T10:50:24.787Z,1008.28
2018-04-28T10:51:24.762Z,1008.30
2018-04-28T10:52:24.737Z,1008.24
2018-04-28T10:53:24.721Z,1008.27
2018-04-28T10:54:24.746Z,1008.28
2018-04-28T10:55:24.679Z,1008.26
2018-04-28T10:56:24.651Z,1008.25
2018-04-28T10:57:24.630Z,1008.23
2018-04-28T10:58:24.606Z,1008.26
2018-04-28T10:59:24.628Z,1008.27
2018-04-28T11:00:25.298Z,1008.26
2018-04-28T11:01:24.580Z,1008.26
2018-04-28T11:02:24.524Z,1008.25
2018-04-28T11:03:24.502Z,1008.31
2018-04-28T11:04:24.484Z,1008.27
2018-04-28T11:05:24.466Z,1008.28
2018-04-28T11:06:24.483Z,1008.33
2018-04-28T11:07:24.417Z,1008.28
2018-04-28T11:08:24.399Z,1008.23
2018-04-28T11:09:24.378Z,1008.29
2018-04-28T11:10:24.357Z,1008.24
2018-04-28T11:11:24.376Z,1008.22
2018-04-28T11:12:24.323Z,1008.20
2018-04-28T11:13:24.342Z,1008.18
2018-04-28T11:14:24.282Z,1008.16
2018-04-28T11:15:24.254Z,1008.18
2018-04-28T11:16:24.274Z,1008.20
2018-04-28T11:17:24.225Z,1008.18
2018-04-28T11:18:24.198Z,1008.13
2018-04-28T11:19:24.174Z,1008.17
2018-04-28T11:20:24.154Z,1008.18
2018-04-28T11:21:24.165Z,1008.13
2018-04-28T11:22:24.149Z,1008.16
2018-04-28T11:23:24.092Z,1008.13
2018-04-28T11:24:24.073Z,1008.15
2018-04-28T11:25:24.735Z,1008.17
2018-04-28T11:26:24.036Z,1008.23
2018-04-28T11:27:24.058Z,1008.19
2018-04-28T11:28:23.993Z,1008.25
2018-04-28T11:29:23.971Z,1008.18
2018-04-28T11:30:23.957Z,1008.16
2018-04-28T11:31:23.946Z,1008.15
2018-04-28T11:32:23.955Z,1008.12
2018-04-28T11:33:23.938Z,1008.11
2018-04-28T11:34:23.875Z,1008.11
2018-04-28T11:35:23.866Z,1008.11
2018-04-28T11:36:23.838Z,1008.04
2018-04-28T11:37:23.817Z,1008.05
2018-04-28T11:38:23.860Z,1008.08
2018-04-28T11:39:23.782Z,1008.09
2018-04-28T11:40:23.758Z,1008.13
2018-04-28T11:41:23.735Z,1008.08
2018-04-28T11:42:23.717Z,1008.07
2018-04-28T11:43:23.748Z,1008.06
2018-04-28T11:44:23.681Z,1008.01
2018-04-28T11:45:23.659Z,1008.06
2018-04-28T11:46:23.702Z,1008.05
2018-04-28T11:47:23.624Z,1007.99
2018-04-28T11:48:24.309Z,1007.99
2018-04-28T11:49:23.628Z,1007.99
2018-04-28T11:50:23.561Z,1007.98
2018-04-28T11:51:23.541Z,1008.02
2018-04-28T11:52:23.532Z,1007.99
2018-04-28T11:53:23.502Z,1007.97
2018-04-28T11:54:23.520Z,1007.96
2018-04-28T11:55:23.505Z,1007.92
2018-04-28T11:56:23.454Z,1007.92
2018-04-28T11:57:23.425Z,1007.95
2018-04-28T11:58:23.413Z,1007.91
2018-04-28T11:59:23.385Z,1007.90
2018-04-28T12:00:23.406Z,1007.89
2018-04-28T12:01:23.351Z,1007.82
2018-04-28T12:02:23.341Z,1007.86
2018-04-28T12:03:23.318Z,1007.86
2018-04-28T12:04:23.289Z,1007.87
2018-04-28T12:05:23.308Z,1007.86